Terminal Aerodrome Forecast
Issued by NWS

Home | Current Version | Previous Version | Text Only | Print | Product List | Glossary On
Versions: 1 2 3 4 5 6 7 8 9 10 11 12 13
829
FTUS43 KAPX 250528
TAFAPN
TAF
KAPN 250528Z 2506/2606 30003KT P6SM BKN060
     FM251400 06006KT P6SM BKN050
     FM251900 10008KT P6SM SCT050 SCT250
     FM260000 11004KT P6SM SCT050 SCT100=

USA.gov is the U.S. government's official web portal to all federal, state and local government web resources and services.